createdAt,value
2018-06-06T00:00:14.587Z,0
2018-06-06T00:01:15.962Z,0
2018-06-06T00:02:17.339Z,0
2018-06-06T00:03:18.698Z,0
2018-06-06T00:04:20.047Z,0
2018-06-06T00:05:21.426Z,0
2018-06-06T00:06:22.791Z,0
2018-06-06T00:07:24.156Z,0
2018-06-06T00:08:25.513Z,0
2018-06-06T00:09:26.883Z,0
2018-06-06T00:10:28.257Z,0
2018-06-06T00:11:29.618Z,0
2018-06-06T00:12:30.989Z,0
2018-06-06T00:13:32.417Z,0
2018-06-06T00:14:33.746Z,0
2018-06-06T00:15:35.101Z,0
2018-06-06T00:16:36.464Z,0
2018-06-06T00:17:37.822Z,0
2018-06-06T00:18:39.183Z,0
2018-06-06T00:19:40.547Z,0
2018-06-06T00:20:41.922Z,0
2018-06-06T00:21:43.276Z,0
2018-06-06T00:22:44.641Z,0
2018-06-06T00:23:46.010Z,0
2018-06-06T00:24:47.381Z,0
2018-06-06T00:25:48.733Z,0
2018-06-06T00:26:50.103Z,0
2018-06-06T00:27:51.468Z,0
2018-06-06T00:28:52.846Z,0
2018-06-06T00:29:54.211Z,0
2018-06-06T00:30:55.579Z,0
2018-06-06T00:31:56.940Z,0
2018-06-06T00:32:58.305Z,0
2018-06-06T00:33:59.655Z,0
2018-06-06T00:35:01.024Z,0
2018-06-06T00:36:03.067Z,0
2018-06-06T00:37:04.443Z,0
2018-06-06T00:38:05.798Z,0
2018-06-06T00:39:07.162Z,0
2018-06-06T00:40:08.503Z,0
2018-06-06T00:41:09.882Z,0
2018-06-06T00:42:11.239Z,0
2018-06-06T00:43:12.601Z,0
2018-06-06T00:44:13.962Z,0
2018-06-06T00:45:15.331Z,0
2018-06-06T00:46:16.692Z,0
2018-06-06T00:47:18.058Z,0
2018-06-06T00:48:19.429Z,0
2018-06-06T00:49:20.787Z,0
2018-06-06T00:50:22.152Z,0
2018-06-06T00:51:23.509Z,0
2018-06-06T00:52:24.873Z,0
2018-06-06T00:53:26.246Z,0
2018-06-06T00:54:27.604Z,0
2018-06-06T00:55:28.963Z,0
2018-06-06T00:56:30.326Z,0
2018-06-06T00:57:31.798Z,0
2018-06-06T00:58:33.117Z,0
2018-06-06T00:59:34.474Z,0
2018-06-06T01:00:35.839Z,0
2018-06-06T01:01:37.195Z,0
2018-06-06T01:02:38.553Z,0
2018-06-06T01:03:39.908Z,0
2018-06-06T01:04:41.306Z,0
2018-06-06T01:05:42.641Z,0
2018-06-06T01:06:44.010Z,0
2018-06-06T01:07:45.378Z,0
2018-06-06T01:08:46.731Z,0
2018-06-06T01:09:48.093Z,0
2018-06-06T01:10:49.463Z,0
2018-06-06T01:11:50.826Z,0
2018-06-06T01:12:52.193Z,0
2018-06-06T01:13:53.558Z,0
2018-06-06T01:14:54.925Z,0
2018-06-06T01:15:56.282Z,0
2018-06-06T01:16:57.645Z,0
2018-06-06T01:17:59.006Z,0
2018-06-06T01:19:00.374Z,0
2018-06-06T01:20:01.752Z,0
2018-06-06T01:21:03.114Z,0
2018-06-06T01:22:04.481Z,0
2018-06-06T01:23:05.837Z,0
2018-06-06T01:24:07.196Z,0
2018-06-06T01:25:08.552Z,0
2018-06-06T01:26:09.922Z,0
2018-06-06T01:27:11.275Z,0
2018-06-06T01:28:12.644Z,0
2018-06-06T01:29:14.008Z,0
2018-06-06T01:30:15.372Z,0
2018-06-06T01:31:16.738Z,0
2018-06-06T01:32:18.103Z,0
2018-06-06T01:33:19.460Z,0
2018-06-06T01:34:20.826Z,0
2018-06-06T01:35:22.188Z,0
2018-06-06T01:36:23.554Z,0
2018-06-06T01:37:24.921Z,0
2018-06-06T01:38:26.297Z,0
2018-06-06T01:39:27.659Z,0
2018-06-06T01:40:29.023Z,0
2018-06-06T01:41:30.391Z,0
2018-06-06T01:42:31.782Z,0
2018-06-06T01:43:33.148Z,0
2018-06-06T01:44:34.510Z,0
2018-06-06T01:45:35.872Z,0
2018-06-06T01:46:37.226Z,0
2018-06-06T01:47:38.592Z,0
2018-06-06T01:48:39.954Z,0
2018-06-06T01:49:41.317Z,0
2018-06-06T01:50:42.676Z,0
2018-06-06T01:51:44.033Z,0
2018-06-06T01:52:45.384Z,0
2018-06-06T01:53:46.754Z,0
2018-06-06T01:54:48.124Z,0
2018-06-06T01:55:49.480Z,0
2018-06-06T01:56:50.848Z,0
2018-06-06T01:57:52.207Z,0
2018-06-06T01:58:53.554Z,0
2018-06-06T01:59:54.920Z,0
2018-06-06T02:00:56.279Z,0
2018-06-06T02:01:57.643Z,0
2018-06-06T02:02:59.004Z,0
2018-06-06T02:04:00.378Z,0
2018-06-06T02:05:01.758Z,0
2018-06-06T02:06:03.113Z,0
2018-06-06T02:07:04.480Z,0
2018-06-06T02:08:05.844Z,0
2018-06-06T02:09:07.201Z,0
2018-06-06T02:10:08.585Z,0
2018-06-06T02:11:09.948Z,0
2018-06-06T02:12:11.319Z,0
2018-06-06T02:13:12.677Z,0
2018-06-06T02:14:14.045Z,0
2018-06-06T02:15:15.407Z,0
2018-06-06T02:16:16.763Z,0
2018-06-06T02:17:18.132Z,0
2018-06-06T02:18:19.485Z,0
2018-06-06T02:19:20.845Z,0
2018-06-06T02:20:22.205Z,0
2018-06-06T02:21:23.559Z,0
2018-06-06T02:22:24.914Z,0
2018-06-06T02:23:26.282Z,0
2018-06-06T02:24:27.643Z,0
2018-06-06T02:25:29.004Z,0
2018-06-06T02:26:30.383Z,0
2018-06-06T02:27:31.793Z,0
2018-06-06T02:28:33.153Z,0
2018-06-06T02:29:34.523Z,0
2018-06-06T02:30:35.897Z,0
2018-06-06T02:31:37.252Z,0
2018-06-06T02:32:38.615Z,0
2018-06-06T02:33:39.993Z,0
2018-06-06T02:34:41.350Z,0
2018-06-06T02:35:42.715Z,4
2018-06-06T02:36:44.114Z,4
2018-06-06T02:37:45.469Z,0
2018-06-06T02:38:46.835Z,0
2018-06-06T02:39:48.196Z,4
2018-06-06T02:40:49.555Z,4
2018-06-06T02:41:50.920Z,4
2018-06-06T02:42:52.282Z,4
2018-06-06T02:43:53.647Z,4
2018-06-06T02:44:54.998Z,8
2018-06-06T02:45:56.367Z,8
2018-06-06T02:46:57.740Z,8
2018-06-06T02:47:59.098Z,12
2018-06-06T02:49:00.463Z,12
2018-06-06T02:50:01.836Z,12
2018-06-06T02:51:03.200Z,12
2018-06-06T02:52:04.575Z,16
2018-06-06T02:53:05.923Z,16
2018-06-06T02:54:07.289Z,24
2018-06-06T02:55:08.655Z,28
2018-06-06T02:56:10.026Z,28
2018-06-06T02:57:11.381Z,32
2018-06-06T02:58:12.743Z,36
2018-06-06T02:59:14.110Z,44
2018-06-06T03:00:15.474Z,48
2018-06-06T03:01:16.843Z,52
2018-06-06T03:02:18.194Z,64
2018-06-06T03:03:19.559Z,68
2018-06-06T03:04:20.921Z,80
2018-06-06T03:05:22.287Z,92
2018-06-06T03:06:23.650Z,100
2018-06-06T03:07:25.014Z,112
2018-06-06T03:08:26.376Z,124
2018-06-06T03:09:27.741Z,140
2018-06-06T03:10:29.103Z,156
2018-06-06T03:11:30.476Z,176
2018-06-06T03:12:32.346Z,192
2018-06-06T03:13:33.714Z,212
2018-06-06T03:14:35.080Z,236
2018-06-06T03:15:36.441Z,260
2018-06-06T03:16:37.847Z,284
2018-06-06T03:17:39.165Z,312
2018-06-06T03:18:40.534Z,336
2018-06-06T03:19:41.889Z,368
2018-06-06T03:20:43.261Z,400
2018-06-06T03:21:44.618Z,432
2018-06-06T03:22:45.983Z,472
2018-06-06T03:23:47.359Z,508
2018-06-06T03:24:48.710Z,548
2018-06-06T03:25:50.080Z,584
2018-06-06T03:26:51.449Z,632
2018-06-06T03:27:52.803Z,676
2018-06-06T03:28:54.169Z,720
2018-06-06T03:29:55.536Z,764
2018-06-06T03:30:56.905Z,812
2018-06-06T03:31:58.265Z,864
2018-06-06T03:32:59.635Z,912
2018-06-06T03:34:01.012Z,960
2018-06-06T03:35:02.414Z,1016
2018-06-06T03:36:03.783Z,1076
2018-06-06T03:37:05.149Z,1140
2018-06-06T03:38:06.514Z,1200
2018-06-06T03:39:07.898Z,1260
2018-06-06T03:40:09.266Z,1332
2018-06-06T03:41:10.635Z,1396
2018-06-06T03:42:12.060Z,1468
2018-06-06T03:43:13.425Z,1536
2018-06-06T03:44:14.796Z,1608
2018-06-06T03:45:16.164Z,1688
2018-06-06T03:46:17.524Z,1764
2018-06-06T03:47:18.885Z,1840
2018-06-06T03:48:20.254Z,1924
2018-06-06T03:49:21.621Z,2008
2018-06-06T03:50:22.984Z,2092
2018-06-06T03:51:24.351Z,2180
2018-06-06T03:52:25.713Z,2268
2018-06-06T03:53:27.096Z,2364
2018-06-06T03:54:28.483Z,2456
2018-06-06T03:55:29.844Z,2548
2018-06-06T03:56:31.208Z,2636
2018-06-06T03:57:32.568Z,2720
2018-06-06T03:58:33.941Z,2804
2018-06-06T03:59:35.311Z,2888
2018-06-06T04:00:36.675Z,2968
2018-06-06T04:01:38.043Z,3056
2018-06-06T04:02:39.411Z,3140
2018-06-06T04:03:40.787Z,3224
2018-06-06T04:04:42.159Z,3316
2018-06-06T04:05:43.534Z,3416
2018-06-06T04:06:44.899Z,3520
2018-06-06T04:07:46.268Z,3624
2018-06-06T04:08:47.624Z,3732
2018-06-06T04:09:48.992Z,3840
2018-06-06T04:10:50.365Z,3940
2018-06-06T04:11:51.734Z,4048
2018-06-06T04:12:53.115Z,4144
2018-06-06T04:13:54.489Z,4248
2018-06-06T04:14:55.844Z,4348
2018-06-06T04:15:57.207Z,4456
2018-06-06T04:16:58.581Z,4560
2018-06-06T04:17:59.944Z,4664
2018-06-06T04:19:01.799Z,4768
2018-06-06T04:20:03.160Z,4876
2018-06-06T04:21:04.531Z,4972
2018-06-06T04:22:05.904Z,5068
2018-06-06T04:23:07.292Z,5160
2018-06-06T04:24:08.656Z,5252
2018-06-06T04:25:10.025Z,5348
2018-06-06T04:26:11.385Z,5456
2018-06-06T04:27:12.756Z,5580
2018-06-06T04:28:14.239Z,5708
2018-06-06T04:29:15.607Z,5848
2018-06-06T04:30:16.976Z,5996
2018-06-06T04:31:18.341Z,6144
2018-06-06T04:32:19.704Z,6288
2018-06-06T04:33:21.081Z,6416
2018-06-06T04:34:22.447Z,6544
2018-06-06T04:35:23.824Z,6652
2018-06-06T04:36:25.182Z,6752
2018-06-06T04:37:26.552Z,6856
2018-06-06T04:38:27.920Z,6956
2018-06-06T04:39:29.284Z,7060
2018-06-06T04:40:30.649Z,7172
2018-06-06T04:41:32.024Z,7284
2018-06-06T04:42:33.405Z,7400
2018-06-06T04:43:34.761Z,7536
2018-06-06T04:44:36.131Z,7660
2018-06-06T04:45:37.491Z,7768
2018-06-06T04:46:38.870Z,7868
2018-06-06T04:47:40.233Z,7956
2018-06-06T04:48:41.604Z,8052
2018-06-06T04:49:42.985Z,8156
2018-06-06T04:50:44.355Z,8272
2018-06-06T04:51:45.720Z,8380
2018-06-06T04:52:47.084Z,8464
2018-06-06T04:53:48.469Z,8516
2018-06-06T04:54:49.832Z,8548
2018-06-06T04:55:51.205Z,8576
2018-06-06T04:56:52.565Z,8596
2018-06-06T04:57:54.057Z,8616
2018-06-06T04:58:55.420Z,8620
2018-06-06T04:59:56.789Z,8632
2018-06-06T05:00:58.161Z,8664
2018-06-06T05:01:59.522Z,8708
2018-06-06T05:03:00.900Z,8760
2018-06-06T05:04:02.272Z,8816
2018-06-06T05:05:03.651Z,8884
2018-06-06T05:06:05.011Z,8956
2018-06-06T05:07:06.387Z,9040
2018-06-06T05:08:07.751Z,9128
2018-06-06T05:09:09.121Z,9224
2018-06-06T05:10:10.492Z,9324
2018-06-06T05:11:11.863Z,9436
2018-06-06T05:12:13.230Z,9552
2018-06-06T05:13:14.583Z,9676
2018-06-06T05:14:15.960Z,9804
2018-06-06T05:15:17.322Z,9928
2018-06-06T05:16:18.696Z,10056
2018-06-06T05:17:20.065Z,10176
2018-06-06T05:18:21.432Z,10296
2018-06-06T05:19:22.801Z,10412
2018-06-06T05:20:24.166Z,10508
2018-06-06T05:21:25.543Z,10604
2018-06-06T05:22:26.914Z,10708
2018-06-06T05:23:28.281Z,10812
2018-06-06T05:24:29.654Z,10916
2018-06-06T05:25:31.020Z,11012
2018-06-06T05:26:32.414Z,11092
2018-06-06T05:27:33.782Z,11168
2018-06-06T05:28:35.146Z,11268
2018-06-06T05:29:36.517Z,11384
2018-06-06T05:30:37.897Z,11532
2018-06-06T05:31:39.260Z,11672
2018-06-06T05:32:40.676Z,11832
2018-06-06T05:33:42.006Z,12024
2018-06-06T05:34:43.365Z,12620
2018-06-06T05:35:44.736Z,13704
2018-06-06T05:36:46.111Z,14352
2018-06-06T05:37:47.482Z,14548
2018-06-06T05:38:48.848Z,14744
2018-06-06T05:39:50.217Z,14840
2018-06-06T05:40:51.582Z,15000
2018-06-06T05:41:52.956Z,15116
2018-06-06T05:42:54.335Z,15248
2018-06-06T05:43:55.698Z,15332
2018-06-06T05:44:57.089Z,15408
2018-06-06T05:45:58.462Z,15544
2018-06-06T05:46:59.828Z,15692
2018-06-06T05:48:01.203Z,15868
2018-06-06T05:49:02.577Z,16004
2018-06-06T05:50:03.940Z,16148
2018-06-06T05:51:05.317Z,16244
2018-06-06T05:52:06.695Z,16376
2018-06-06T05:53:08.066Z,16468
2018-06-06T05:54:09.442Z,16568
2018-06-06T05:55:10.816Z,16664
2018-06-06T05:56:12.186Z,16792
2018-06-06T05:57:13.581Z,16972
2018-06-06T05:58:14.932Z,17152
2018-06-06T05:59:16.316Z,17284
2018-06-06T06:00:17.687Z,17424
2018-06-06T06:01:19.056Z,17576
2018-06-06T06:02:20.450Z,17748
2018-06-06T06:03:21.826Z,18012
2018-06-06T06:04:23.201Z,18228
2018-06-06T06:05:24.582Z,18572
2018-06-06T06:06:25.958Z,19088
2018-06-06T06:07:27.391Z,19744
2018-06-06T06:08:28.796Z,20064
2018-06-06T06:09:30.114Z,20320
2018-06-06T06:10:31.501Z,20928
2018-06-06T06:11:32.901Z,21568
2018-06-06T06:12:34.273Z,22272
2018-06-06T06:13:35.660Z,24224
2018-06-06T06:14:37.053Z,27968
2018-06-06T06:15:38.466Z,33408
2018-06-06T06:16:39.853Z,39072
2018-06-06T06:17:41.585Z,40608
2018-06-06T06:18:42.819Z,37568
2018-06-06T06:19:44.179Z,34368
2018-06-06T06:20:45.574Z,34688
2018-06-06T06:21:46.964Z,35392
2018-06-06T06:22:48.331Z,36160
2018-06-06T06:23:49.708Z,36640
2018-06-06T06:24:51.091Z,37952
2018-06-06T06:25:52.468Z,37920
2018-06-06T06:26:53.844Z,39936
2018-06-06T06:27:55.232Z,42528
2018-06-06T06:28:56.622Z,45920
2018-06-06T06:29:58.084Z,49184
2018-06-06T06:30:59.367Z,49920
2018-06-06T06:32:00.746Z,49344
2018-06-06T06:33:02.959Z,53184
2018-06-06T06:34:04.389Z,56672
2018-06-06T06:35:05.776Z,55200
2018-06-06T06:36:07.154Z,57472
2018-06-06T06:37:08.532Z,55328
2018-06-06T06:38:09.923Z,55200
2018-06-06T06:39:11.306Z,54048
2018-06-06T06:40:12.682Z,54144
2018-06-06T06:41:14.062Z,53568
2018-06-06T06:42:15.446Z,50048
2018-06-06T06:43:16.883Z,48192
2018-06-06T06:44:18.275Z,43904
2018-06-06T06:45:19.647Z,46080
2018-06-06T06:46:21.094Z,44160
2018-06-06T06:47:22.483Z,36448
2018-06-06T06:48:23.877Z,38048
2018-06-06T06:49:25.252Z,40672
2018-06-06T06:50:26.643Z,25824
2018-06-06T06:51:28.079Z,31968
2018-06-06T06:52:29.453Z,39552
2018-06-06T06:53:30.833Z,40320
2018-06-06T06:54:32.281Z,41376
2018-06-06T06:55:33.664Z,41312
2018-06-06T06:56:35.053Z,40096
2018-06-06T06:57:36.429Z,38272
2018-06-06T06:58:37.817Z,36160
2018-06-06T06:59:39.192Z,31296
2018-06-06T07:00:40.580Z,32768
2018-06-06T07:01:41.951Z,24512
2018-06-06T07:02:43.327Z,26208
2018-06-06T07:03:44.766Z,40128
2018-06-06T07:04:46.143Z,39776
2018-06-06T07:05:47.547Z,43808
2018-06-06T07:06:48.973Z,45248
2018-06-06T07:07:50.347Z,44512
2018-06-06T07:08:51.718Z,44128
2018-06-06T07:09:53.118Z,43392
2018-06-06T07:10:54.499Z,43200
2018-06-06T07:11:55.882Z,42752
2018-06-06T07:12:57.262Z,42720
2018-06-06T07:13:58.664Z,42816
2018-06-06T07:15:00.047Z,44352
2018-06-06T07:16:01.448Z,45408
2018-06-06T07:17:02.813Z,45408
2018-06-06T07:18:04.202Z,46944
2018-06-06T07:19:05.583Z,48288
2018-06-06T07:20:06.983Z,49568
2018-06-06T07:21:08.362Z,52224
2018-06-06T07:22:09.738Z,58176
2018-06-06T07:23:11.129Z,64352
2018-06-06T07:24:12.518Z,63840
2018-06-06T07:25:13.902Z,58560
2018-06-06T07:26:15.297Z,56192
2018-06-06T07:27:16.678Z,57664
2018-06-06T07:28:18.068Z,59648
2018-06-06T07:29:19.489Z,63040
2018-06-06T07:30:20.877Z,70176
2018-06-06T07:31:22.280Z,71264
2018-06-06T07:32:23.669Z,64640
2018-06-06T07:33:25.050Z,57760
2018-06-06T07:34:26.446Z,51008
2018-06-06T07:35:27.913Z,46624
2018-06-06T07:36:29.329Z,45600
2018-06-06T07:37:30.706Z,44352
2018-06-06T07:38:32.123Z,42592
2018-06-06T07:39:33.499Z,41856
2018-06-06T07:40:34.899Z,41568
2018-06-06T07:41:36.282Z,41280
2018-06-06T07:42:37.672Z,41408
2018-06-06T07:43:39.053Z,41600
2018-06-06T07:44:40.459Z,41728
2018-06-06T07:45:41.849Z,41952
2018-06-06T07:46:43.293Z,42176
2018-06-06T07:47:44.670Z,42336
2018-06-06T07:48:46.057Z,42368
2018-06-06T07:49:47.443Z,42496
2018-06-06T07:50:48.832Z,42528
2018-06-06T07:51:50.213Z,42752
2018-06-06T07:52:51.603Z,43072
2018-06-06T07:53:52.994Z,43232
2018-06-06T07:54:54.385Z,43424
2018-06-06T07:55:55.769Z,43808
2018-06-06T07:56:57.154Z,44000
2018-06-06T07:57:58.535Z,44320
2018-06-06T07:58:59.923Z,44640
2018-06-06T08:00:01.308Z,44896
2018-06-06T08:01:02.689Z,45184
2018-06-06T08:02:04.079Z,45152
2018-06-06T08:03:05.467Z,45056
2018-06-06T08:04:06.860Z,45152
2018-06-06T08:05:08.264Z,45440
2018-06-06T08:06:09.660Z,45568
2018-06-06T08:07:11.083Z,45888
2018-06-06T08:08:12.403Z,45824
2018-06-06T08:09:13.794Z,45696
2018-06-06T08:10:15.190Z,45760
2018-06-06T08:11:16.583Z,45824
2018-06-06T08:12:17.964Z,45824
2018-06-06T08:13:19.363Z,45664
2018-06-06T08:14:20.746Z,45920
2018-06-06T08:15:22.130Z,45824
2018-06-06T08:16:23.524Z,46080
2018-06-06T08:17:24.922Z,46016
2018-06-06T08:18:26.317Z,46080
2018-06-06T08:19:27.695Z,46144
2018-06-06T08:20:29.104Z,46304
2018-06-06T08:21:30.518Z,46240
2018-06-06T08:22:31.872Z,46304
2018-06-06T08:23:33.275Z,47360
2018-06-06T08:24:34.655Z,57760
2018-06-06T08:25:36.044Z,82272
2018-06-06T08:26:37.433Z,96480
2018-06-06T08:27:38.955Z,99616
2018-06-06T08:28:40.372Z,99616
2018-06-06T08:29:41.738Z,98560
2018-06-06T08:30:43.148Z,98560
2018-06-06T08:31:44.531Z,98624
2018-06-06T08:32:46.333Z,99424
2018-06-06T08:33:47.725Z,99552
2018-06-06T08:34:49.114Z,98784
2018-06-06T08:35:50.690Z,98048
2018-06-06T08:36:52.100Z,94112
2018-06-06T08:37:53.494Z,91232
2018-06-06T08:38:54.883Z,93056
2018-06-06T08:39:56.270Z,95136
2018-06-06T08:40:57.668Z,93280
2018-06-06T08:41:59.050Z,94816
2018-06-06T08:43:00.438Z,95008
2018-06-06T08:44:01.865Z,94848
2018-06-06T08:45:03.250Z,94880
2018-06-06T08:46:04.650Z,96768
2018-06-06T08:47:06.044Z,99072
2018-06-06T08:48:07.426Z,98880
2018-06-06T08:49:08.849Z,97984
2018-06-06T08:50:10.230Z,100064
2018-06-06T08:51:11.635Z,100864
2018-06-06T08:52:13.038Z,100064
2018-06-06T08:53:14.430Z,99840
2018-06-06T08:54:15.834Z,99872
2018-06-06T08:55:17.222Z,99840
2018-06-06T08:56:18.610Z,98368
2018-06-06T08:57:20.001Z,100544
2018-06-06T08:58:21.400Z,102560
2018-06-06T08:59:22.787Z,101056
2018-06-06T09:00:24.186Z,100160
2018-06-06T09:01:25.570Z,100224
2018-06-06T09:02:26.959Z,99296
2018-06-06T09:03:28.424Z,99968
2018-06-06T09:04:29.804Z,99552
2018-06-06T09:05:31.789Z,99360
2018-06-06T09:06:33.246Z,99136
2018-06-06T09:07:34.648Z,99520
2018-06-06T09:08:36.040Z,99712
2018-06-06T09:09:37.444Z,98720
2018-06-06T09:10:38.884Z,96096
2018-06-06T09:11:40.276Z,94528
2018-06-06T09:12:41.670Z,96192
2018-06-06T09:13:43.061Z,98080
2018-06-06T09:14:44.458Z,97120
2018-06-06T09:15:45.865Z,95200
2018-06-06T09:16:47.276Z,92896
2018-06-06T09:17:48.660Z,92416
2018-06-06T09:18:50.059Z,93920
2018-06-06T09:19:51.452Z,95584
2018-06-06T09:20:52.838Z,94208
2018-06-06T09:21:54.235Z,91904
2018-06-06T09:22:55.670Z,88640
2018-06-06T09:23:57.086Z,87680
2018-06-06T09:24:58.471Z,85792
2018-06-06T09:25:59.944Z,84608
2018-06-06T09:27:01.922Z,86720
2018-06-06T09:28:03.295Z,87424
2018-06-06T09:29:04.725Z,89312
2018-06-06T09:30:06.174Z,91168
2018-06-06T09:31:07.568Z,93152
2018-06-06T09:32:08.954Z,94144
2018-06-06T09:33:10.345Z,93248
2018-06-06T09:34:11.770Z,94272
2018-06-06T09:35:13.165Z,92352
2018-06-06T09:36:14.601Z,88416
2018-06-06T09:37:15.963Z,87264
2018-06-06T09:38:17.360Z,90048
2018-06-06T09:39:18.760Z,91456
2018-06-06T09:40:20.153Z,92128
2018-06-06T09:41:21.600Z,93408
2018-06-06T09:42:22.996Z,93632
2018-06-06T09:43:24.404Z,94656
2018-06-06T09:44:25.825Z,94304
2018-06-06T09:45:27.234Z,94944
2018-06-06T09:46:30.309Z,96256
2018-06-06T09:47:31.736Z,97184
2018-06-06T09:48:33.134Z,96192
2018-06-06T09:49:34.539Z,96448
2018-06-06T09:50:35.935Z,95456
2018-06-06T09:51:37.325Z,95200
2018-06-06T09:52:38.796Z,93568
2018-06-06T09:53:40.179Z,94464
2018-06-06T09:54:41.581Z,94784
2018-06-06T09:55:43.034Z,95776
2018-06-06T09:56:44.423Z,98496
2018-06-06T09:57:45.823Z,99680
2018-06-06T09:58:47.230Z,100896
2018-06-06T09:59:48.626Z,102240
2018-06-06T10:00:50.021Z,102240
2018-06-06T10:01:51.413Z,101824
2018-06-06T10:02:52.800Z,101984
2018-06-06T10:03:54.203Z,101600
2018-06-06T10:04:55.598Z,101632
2018-06-06T10:05:56.984Z,101888
2018-06-06T10:06:58.380Z,101312
2018-06-06T10:07:59.761Z,99936
2018-06-06T10:09:01.174Z,100416
2018-06-06T10:10:02.575Z,105664
2018-06-06T10:11:03.969Z,108928
2018-06-06T10:12:05.370Z,112384
2018-06-06T10:13:06.779Z,115392
2018-06-06T10:14:08.204Z,117728
2018-06-06T10:15:09.621Z,119136
2018-06-06T10:16:11.001Z,118784
2018-06-06T10:17:12.449Z,119488
2018-06-06T10:18:13.866Z,117920
2018-06-06T10:19:15.251Z,117888
2018-06-06T10:20:16.674Z,115968
2018-06-06T10:21:18.085Z,115328
2018-06-06T10:22:19.467Z,114560
2018-06-06T10:23:20.849Z,113696
2018-06-06T10:24:22.245Z,115648
2018-06-06T10:25:23.651Z,118336
2018-06-06T10:26:25.048Z,119040
2018-06-06T10:27:26.449Z,117056
2018-06-06T10:28:27.840Z,113440
2018-06-06T10:29:29.240Z,111552
2018-06-06T10:30:30.656Z,113856
2018-06-06T10:31:32.095Z,114304
2018-06-06T10:32:33.485Z,116192
2018-06-06T10:33:34.877Z,110528
2018-06-06T10:34:36.305Z,100992
2018-06-06T10:35:37.756Z,79104
2018-06-06T10:36:39.165Z,81600
2018-06-06T10:37:40.561Z,65984
2018-06-06T10:38:41.955Z,64224
2018-06-06T10:39:43.404Z,54784
2018-06-06T10:40:44.796Z,62816
2018-06-06T10:41:46.204Z,60992
2018-06-06T10:42:47.609Z,108064
2018-06-06T10:43:48.995Z,117472
2018-06-06T10:44:50.399Z,118432
2018-06-06T10:45:51.858Z,117888
2018-06-06T10:46:53.221Z,117568
2018-06-06T10:47:54.609Z,118208
2018-06-06T10:48:55.999Z,116736
2018-06-06T10:49:57.391Z,114432
2018-06-06T10:50:58.780Z,114624
2018-06-06T10:52:00.162Z,114432
2018-06-06T10:53:01.597Z,112544
2018-06-06T10:54:02.986Z,111136
2018-06-06T10:55:04.390Z,110464
2018-06-06T10:56:05.780Z,110880
2018-06-06T10:57:07.171Z,111360
2018-06-06T10:58:08.562Z,113152
2018-06-06T10:59:09.962Z,112128
2018-06-06T11:00:11.365Z,113984
2018-06-06T11:01:12.786Z,115008
2018-06-06T11:02:14.179Z,113600
2018-06-06T11:03:15.574Z,113984
2018-06-06T11:04:16.963Z,112416
2018-06-06T11:05:18.373Z,111712
2018-06-06T11:06:19.772Z,112096
2018-06-06T11:07:21.157Z,112480
2018-06-06T11:08:22.552Z,113504
2018-06-06T11:09:23.937Z,113888
2018-06-06T11:10:25.340Z,114112
2018-06-06T11:11:26.726Z,111552
2018-06-06T11:12:28.127Z,112832
2018-06-06T11:13:29.622Z,114624
2018-06-06T11:14:31.011Z,114816
2018-06-06T11:15:32.406Z,115136
2018-06-06T11:16:33.854Z,115904
2018-06-06T11:17:35.215Z,116736
2018-06-06T11:18:36.611Z,115840
2018-06-06T11:19:38.006Z,114720
2018-06-06T11:20:39.463Z,116064
2018-06-06T11:21:40.915Z,116960
2018-06-06T11:22:42.310Z,116288
2018-06-06T11:23:43.712Z,116128
2018-06-06T11:24:45.107Z,115680
2018-06-06T11:25:46.501Z,115456
2018-06-06T11:26:47.908Z,115936
2018-06-06T11:27:49.298Z,115200
2018-06-06T11:28:50.682Z,115584
2018-06-06T11:29:52.096Z,114368
2018-06-06T11:30:53.493Z,115520
2018-06-06T11:31:54.875Z,116096
2018-06-06T11:32:56.288Z,113952
2018-06-06T11:33:57.687Z,115072
2018-06-06T11:34:59.104Z,114784
2018-06-06T11:36:00.502Z,115584
2018-06-06T11:37:01.932Z,114144
2018-06-06T11:38:03.327Z,112480
2018-06-06T11:39:04.731Z,112000
2018-06-06T11:40:06.129Z,113184
2018-06-06T11:41:07.526Z,111968
2018-06-06T11:42:08.934Z,112448
2018-06-06T11:43:10.319Z,112128
2018-06-06T11:44:11.723Z,114080
2018-06-06T11:45:13.122Z,113920
2018-06-06T11:46:14.523Z,112928
2018-06-06T11:47:15.916Z,111072
2018-06-06T11:48:17.312Z,111968
2018-06-06T11:49:18.835Z,112064
2018-06-06T11:50:20.231Z,112576
2018-06-06T11:51:21.621Z,115744
2018-06-06T11:52:23.018Z,116512
2018-06-06T11:53:24.412Z,116832
2018-06-06T11:54:25.797Z,116928
2018-06-06T11:55:27.200Z,117344
2018-06-06T11:56:28.589Z,115264
2018-06-06T11:57:29.981Z,115968
2018-06-06T11:58:31.389Z,117120
2018-06-06T11:59:32.776Z,118496
2018-06-06T12:00:34.172Z,116608
2018-06-06T12:01:35.626Z,114752
2018-06-06T12:02:38.403Z,114720
2018-06-06T12:03:39.797Z,115872
2018-06-06T12:04:41.254Z,118848
2018-06-06T12:05:42.657Z,120448
2018-06-06T12:06:46.688Z,119616
2018-06-06T12:07:48.041Z,118048
2018-06-06T12:08:49.436Z,116352
2018-06-06T12:09:50.888Z,117312
2018-06-06T12:10:52.223Z,117888
2018-06-06T12:11:53.625Z,119424
2018-06-06T12:12:55.019Z,120160
2018-06-06T12:13:56.423Z,119840
2018-06-06T12:14:57.804Z,119456
2018-06-06T12:15:59.199Z,117952
2018-06-06T12:17:00.611Z,119424
2018-06-06T12:18:02.504Z,121696
2018-06-06T12:19:03.903Z,121856
2018-06-06T12:20:05.297Z,120512
2018-06-06T12:21:06.707Z,118112
2018-06-06T12:22:08.103Z,118432
2018-06-06T12:23:09.497Z,119360
2018-06-06T12:24:10.895Z,120672
2018-06-06T12:25:12.302Z,121664
2018-06-06T12:26:13.698Z,121760
2018-06-06T12:27:15.090Z,119328
2018-06-06T12:28:16.491Z,119040
2018-06-06T12:29:17.885Z,119392
2018-06-06T12:30:19.278Z,121920
2018-06-06T12:31:20.668Z,119520
2018-06-06T12:32:22.064Z,120256
2018-06-06T12:33:23.475Z,122688
2018-06-06T12:34:24.865Z,122112
2018-06-06T12:35:26.270Z,120192
2018-06-06T12:36:27.676Z,119520
2018-06-06T12:37:29.072Z,119136
2018-06-06T12:38:30.476Z,116096
2018-06-06T12:39:31.897Z,114784
2018-06-06T12:40:33.343Z,114880
2018-06-06T12:41:34.738Z,113920
2018-06-06T12:42:36.211Z,115392
2018-06-06T12:43:37.618Z,110400
2018-06-06T12:44:39.088Z,107520
2018-06-06T12:45:40.532Z,106624
2018-06-06T12:46:41.862Z,111264
2018-06-06T12:47:43.266Z,116928
2018-06-06T12:48:44.662Z,122656
2018-06-06T12:49:46.102Z,124320
2018-06-06T12:50:47.514Z,120672
2018-06-06T12:51:48.909Z,123232
2018-06-06T12:52:50.296Z,121248
2018-06-06T12:53:51.696Z,118624
2018-06-06T12:54:53.093Z,116192
2018-06-06T12:55:54.492Z,109152
2018-06-06T12:56:55.891Z,107296
2018-06-06T12:57:57.287Z,105600
2018-06-06T12:58:58.678Z,53568
2018-06-06T13:00:00.068Z,55488
2018-06-06T13:01:01.458Z,108128
2018-06-06T13:02:02.858Z,108960
2018-06-06T13:03:04.248Z,106592
2018-06-06T13:04:05.666Z,104064
2018-06-06T13:05:07.107Z,102432
2018-06-06T13:06:08.505Z,99168
2018-06-06T13:07:09.893Z,100384
2018-06-06T13:08:11.289Z,47968
2018-06-06T13:09:12.688Z,100800
2018-06-06T13:10:14.081Z,90560
2018-06-06T13:11:15.479Z,102208
2018-06-06T13:12:16.884Z,99360
2018-06-06T13:13:18.303Z,104288
2018-06-06T13:14:19.699Z,36160
2018-06-06T13:15:21.109Z,31904
2018-06-06T13:16:22.501Z,29120
2018-06-06T13:17:23.896Z,27552
2018-06-06T13:18:25.288Z,26976
2018-06-06T13:19:26.678Z,26528
2018-06-06T13:20:28.091Z,27392
2018-06-06T13:21:29.481Z,29728
2018-06-06T13:22:30.864Z,31040
2018-06-06T13:23:32.282Z,29984
2018-06-06T13:24:33.679Z,29216
2018-06-06T13:25:35.076Z,28992
2018-06-06T13:26:36.474Z,28832
2018-06-06T13:27:37.900Z,28736
2018-06-06T13:28:39.281Z,28768
2018-06-06T13:29:40.662Z,30528
2018-06-06T13:30:42.050Z,33536
2018-06-06T13:31:43.459Z,36992
2018-06-06T13:32:44.842Z,45920